»·PEaware :: ASA352 KSAN-KSFO

ASA352 :: KSAN-KSFO

FLIGHT INFORMATION

Flight Status: Arrived
Operator:
Alaska Airlines
More flights by this operator :: More flights under this callsign
Pilot: Isaac R. (8401)
Aircraft: AIRBUS A320
(A320)
More flights by this aircraft type
Origin: KSAN San Diego Intl-Lindbergh
United States
Destination: KSFO San Francisco Intl
United States
More flights between these airports :: More routes between these airports
Route: PADRZ2 IKAYE RIZIN SPLNT STOKD SERFER SERFR4
File this flight plan on PilotEdge
Remarks:
Altitude:
(Current/Filed)
34,000ft
Speed:
(Current/Filed)
450kts
Departed: 13-Feb-20 06:08 PM
Arrived: 13-Feb-20 07:14 PM
Distance/Time
Traveled:
388nm/1:06
Distance/Time
To Go:
Arrived

Flight Plot

Page will automatically refresh every two minutes.

Flight plan parsing failed; only flown route is shown


Map Options




Map Legend


Flown Route
Filed Route
Departure Airport
Arrival Airport
Navaid (VOR, NDB)
Fix

Horizontal Profiles

Position Reports

Time Latitude Longitude Heading Altitude Ground
Speed
13-Feb-20 17:32 32.732520 -117.205423 170 29ft 0kts
13-Feb-20 17:33 32.732520 -117.205423 170 29ft 0kts
13-Feb-20 17:34 32.732520 -117.205423 170 29ft 0kts
13-Feb-20 17:35 32.732520 -117.205423 170 29ft 0kts
13-Feb-20 17:36 32.732520 -117.205423 170 29ft 0kts
13-Feb-20 17:37 32.732520 -117.205423 170 29ft 0kts
13-Feb-20 17:38 32.732520 -117.205423 170 29ft 0kts
13-Feb-20 17:39 32.732520 -117.205423 170 29ft 0kts
13-Feb-20 17:40 32.732520 -117.205423 170 29ft 0kts
13-Feb-20 17:41 32.732520 -117.205423 170 29ft 0kts
13-Feb-20 17:42 32.732520 -117.205423 170 29ft 0kts
13-Feb-20 17:43 32.732520 -117.205423 170 29ft 0kts
13-Feb-20 17:44 32.732520 -117.205423 170 29ft 0kts
13-Feb-20 17:45 32.732520 -117.205423 170 29ft 0kts
13-Feb-20 17:46 32.732520 -117.205423 170 29ft 0kts
13-Feb-20 17:47 32.732520 -117.205423 170 29ft 0kts
13-Feb-20 17:48 32.732520 -117.205423 170 29ft 0kts
13-Feb-20 17:49 32.732520 -117.205423 170 29ft 0kts
13-Feb-20 17:50 32.732520 -117.205423 170 29ft 0kts
13-Feb-20 17:51 32.732520 -117.205423 170 29ft 0kts
13-Feb-20 17:52 32.732520 -117.205423 170 29ft 0kts
13-Feb-20 17:53 32.732520 -117.205423 170 29ft 0kts
13-Feb-20 17:54 32.732520 -117.205423 170 29ft 0kts
13-Feb-20 17:55 32.733123 -117.205601 150 29ft 2kts
13-Feb-20 17:56 32.733136 -117.205940 39 29ft 0kts
13-Feb-20 17:57 32.733138 -117.205939 39 29ft 0kts
13-Feb-20 17:58 32.734057 -117.205585 357 29ft 11kts
13-Feb-20 17:59 32.735497 -117.204562 49 29ft 0kts
13-Feb-20 18:00 32.735890 -117.203746 86 29ft 9kts
13-Feb-20 18:01 32.734505 -117.197857 106 29ft 24kts
13-Feb-20 18:02 32.732635 -117.190128 105 29ft 24kts
13-Feb-20 18:03 32.730855 -117.182795 106 29ft 22kts
13-Feb-20 18:04 32.729479 -117.176811 73 29ft 0kts
13-Feb-20 18:05 32.729539 -117.176611 69 29ft 3kts
13-Feb-20 18:06 32.730282 -117.176134 286 29ft 7kts
13-Feb-20 18:07 32.737945 -117.207333 288 344ft 157kts
13-Feb-20 18:08 32.761262 -117.252873 304 2438ft 170kts
13-Feb-20 18:09 32.795674 -117.311631 304 4077ft 259kts
13-Feb-20 18:10 32.840961 -117.382377 307 7988ft 278kts
13-Feb-20 18:11 32.890497 -117.459199 306 10871ft 318kts
13-Feb-20 18:12 32.945327 -117.544529 306 13797ft 331kts
13-Feb-20 18:13 33.002183 -117.633201 306 16176ft 343kts
13-Feb-20 18:14 33.061211 -117.725267 308 18263ft 354kts
13-Feb-20 18:15 33.136764 -117.803802 318 20129ft 366kts
13-Feb-20 18:16 33.214218 -117.885944 313 21887ft 377kts
13-Feb-20 18:17 33.289159 -117.975252 313 23510ft 385kts
13-Feb-20 18:18 33.365717 -118.066663 313 24932ft 393kts
13-Feb-20 18:19 33.443972 -118.160310 313 26172ft 400kts
13-Feb-20 18:20 33.523270 -118.255431 313 27263ft 407kts
13-Feb-20 18:21 33.603680 -118.352146 313 28276ft 413kts
13-Feb-20 18:22 33.685450 -118.450724 313 29183ft 418kts
13-Feb-20 18:23 33.767848 -118.550331 313 30033ft 423kts
13-Feb-20 18:24 33.851259 -118.651422 313 30840ft 427kts
13-Feb-20 18:25 33.935205 -118.753428 313 31650ft 431kts
13-Feb-20 18:26 34.019979 -118.856727 313 32387ft 438kts
13-Feb-20 18:27 34.106332 -118.962115 313 33172ft 443kts
13-Feb-20 18:28 34.181499 -119.079249 300 33963ft 445kts
13-Feb-20 18:29 34.245769 -119.206047 300 34004ft 442kts
13-Feb-20 18:30 34.310327 -119.332707 300 34006ft 441kts
13-Feb-20 18:31 34.374702 -119.458801 300 34008ft 441kts
13-Feb-20 18:32 34.447751 -119.577671 313 34009ft 442kts
13-Feb-20 18:33 34.534100 -119.683517 313 34008ft 442kts
13-Feb-20 18:34 34.620285 -119.789497 313 34009ft 442kts
13-Feb-20 18:35 34.706729 -119.896152 313 34012ft 442kts
13-Feb-20 18:36 34.792805 -120.002684 313 34014ft 442kts
13-Feb-20 18:37 34.878641 -120.109313 313 34024ft 440kts
13-Feb-20 18:38 34.964140 -120.215831 313 34027ft 440kts
13-Feb-20 18:39 35.049582 -120.322604 313 34031ft 440kts
13-Feb-20 18:40 35.137671 -120.427066 316 34028ft 441kts
13-Feb-20 18:41 35.227745 -120.528544 317 34026ft 441kts
13-Feb-20 18:42 35.317845 -120.629986 317 34023ft 440kts
13-Feb-20 18:43 35.408248 -120.731889 317 34017ft 440kts
13-Feb-20 18:44 35.499364 -120.831936 322 34008ft 439kts
13-Feb-20 18:45 35.596990 -120.922811 322 34003ft 439kts
13-Feb-20 18:46 35.694287 -121.013312 322 33999ft 438kts
13-Feb-20 18:47 35.792052 -121.104407 322 32138ft 452kts
13-Feb-20 18:48 35.890260 -121.196118 322 30252ft 431kts
13-Feb-20 18:49 35.982115 -121.282421 322 29056ft 404kts
13-Feb-20 18:50 36.070435 -121.365141 325 27378ft 392kts
13-Feb-20 18:51 36.161803 -121.437180 327 25697ft 383kts
13-Feb-20 18:52 36.250795 -121.506801 326 24074ft 375kts
13-Feb-20 18:53 36.338168 -121.575254 326 22542ft 366kts
13-Feb-20 18:54 36.423189 -121.642019 326 21086ft 356kts
13-Feb-20 18:55 36.506199 -121.707453 326 20017ft 345kts
13-Feb-20 18:56 36.586092 -121.770747 326 18726ft 335kts
13-Feb-20 18:57 36.663823 -121.832332 326 17437ft 328kts
13-Feb-20 18:58 36.741507 -121.889927 337 16208ft 321kts
13-Feb-20 18:59 36.828035 -121.917910 345 14901ft 319kts
13-Feb-20 19:00 36.913730 -121.942166 346 13664ft 313kts
13-Feb-20 19:01 36.997005 -121.970626 341 12349ft 307kts
13-Feb-20 19:02 37.077766 -122.002097 341 10955ft 300kts
13-Feb-20 19:04 37.155262 -122.032368 341 9790ft 282kts
13-Feb-20 19:05 37.229803 -122.061555 342 8679ft 279kts
13-Feb-20 19:06 37.302639 -122.090206 341 7530ft 268kts
13-Feb-20 19:07 37.372745 -122.117804 342 6110ft 259kts
13-Feb-20 19:08 37.442537 -122.141885 343 5002ft 258kts
13-Feb-20 19:09 37.510774 -122.165363 343 3406ft 248kts
13-Feb-20 19:10 37.551867 -122.216666 298 2562ft 192kts
13-Feb-20 19:11 37.574213 -122.268954 294 1600ft 142kts
13-Feb-20 19:12 37.591985 -122.311271 295 854ft 130kts
13-Feb-20 19:13 37.608895 -122.351510 296 203ft 126kts
13-Feb-20 19:14 37.618390 -122.374205 294 27ft 24kts
13-Feb-20 19:15 37.617589 -122.379438 172 27ft 14kts
13-Feb-20 19:16 37.615934 -122.382156 294 27ft 6kts
13-Feb-20 19:17 37.615776 -122.383155 224 27ft 0kts
13-Feb-20 19:18 37.615775 -122.383156 224 27ft 0kts

Navigation Log

Ident Type
Flight plan parsing failed, navigation log unavailable